createdAt,value
2018-05-10T00:00:10.703Z,11.83
2018-05-10T00:03:13.195Z,11.83
2018-05-10T00:06:15.694Z,13.13
2018-05-10T00:09:18.221Z,13.60
2018-05-10T00:12:20.760Z,16.23
2018-05-10T00:15:23.315Z,10.37
2018-05-10T00:18:25.848Z,10.50
2018-05-10T00:21:28.360Z,13.87
2018-05-10T00:24:30.880Z,11.77
2018-05-10T00:27:33.406Z,11.27
2018-05-10T00:30:36.773Z,14.40
2018-05-10T00:33:39.852Z,12.43
2018-05-10T00:36:42.379Z,12.13
2018-05-10T00:39:44.874Z,12.80
2018-05-10T00:42:47.374Z,12.90
2018-05-10T00:45:50.609Z,20.20
2018-05-10T00:48:53.214Z,16.33
2018-05-10T00:51:55.734Z,12.50
2018-05-10T00:54:58.270Z,12.10
2018-05-10T00:58:00.792Z,13.37
2018-05-10T01:01:03.375Z,14.13
2018-05-10T01:04:05.927Z,13.10
2018-05-10T01:07:08.460Z,12.83
2018-05-10T01:10:10.991Z,13.30
2018-05-10T01:13:13.521Z,12.47
2018-05-10T01:16:16.087Z,10.77
2018-05-10T01:19:18.650Z,12.60
2018-05-10T01:22:21.213Z,14.13
2018-05-10T01:25:23.757Z,9.93
2018-05-10T01:28:26.358Z,11.33
2018-05-10T01:31:29.497Z,9.90
2018-05-10T01:34:32.091Z,13.47
2018-05-10T01:37:34.632Z,14.13
2018-05-10T01:40:37.211Z,13.03
2018-05-10T01:43:39.856Z,10.13
2018-05-10T01:46:42.453Z,12.80
2018-05-10T01:49:45.019Z,14.43
2018-05-10T01:52:47.571Z,9.50
2018-05-10T01:55:50.103Z,13.57
2018-05-10T01:58:52.639Z,13.57
2018-05-10T02:01:55.201Z,10.00
2018-05-10T02:04:57.694Z,16.67
2018-05-10T02:08:00.191Z,11.47
2018-05-10T02:11:02.755Z,11.60
2018-05-10T02:14:05.292Z,13.27
2018-05-10T02:17:07.823Z,14.77
2018-05-10T02:20:10.359Z,13.23
2018-05-10T02:23:12.886Z,16.93
2018-05-10T02:26:15.441Z,11.23
2018-05-10T02:29:17.971Z,13.07
2018-05-10T02:32:20.478Z,13.63
2018-05-10T02:35:23.045Z,12.93
2018-05-10T02:38:25.560Z,16.63
2018-05-10T05:19:28.265Z,14.57
2018-05-10T05:22:30.804Z,15.00
2018-05-10T05:25:33.302Z,11.90
2018-05-10T05:28:35.873Z,13.73
2018-05-10T05:31:41.568Z,20.60
2018-05-10T05:34:44.135Z,11.60
2018-05-10T05:37:47.712Z,13.67
2018-05-10T05:40:50.255Z,14.47
2018-05-10T05:43:53.115Z,16.43
2018-05-10T05:46:57.381Z,13.30
2018-05-10T05:50:05.636Z,11.50
2018-05-10T05:53:13.126Z,10.87
2018-05-10T05:59:37.441Z,15.20
2018-05-10T06:02:40.085Z,14.87
2018-05-10T06:05:42.630Z,16.43
2018-05-10T06:08:46.004Z,19.23
2018-05-10T06:11:48.485Z,12.60
2018-05-10T06:14:51.047Z,12.63
2018-05-10T06:17:55.512Z,18.13
2018-05-10T06:20:58.216Z,14.20
2018-05-10T06:24:00.755Z,15.07
2018-05-10T06:27:03.326Z,16.47
2018-05-10T06:30:05.893Z,12.03
2018-05-10T06:33:08.439Z,12.30
2018-05-10T06:36:10.936Z,15.80
2018-05-10T06:39:13.451Z,16.73
2018-05-10T06:42:15.989Z,14.53
2018-05-10T06:45:18.516Z,14.23
2018-05-10T06:48:21.037Z,17.27
2018-05-10T06:51:23.605Z,15.30
2018-05-10T06:54:26.151Z,13.30
2018-05-10T06:57:28.708Z,12.37
2018-05-10T07:00:32.090Z,13.90
2018-05-10T07:03:34.697Z,12.70
2018-05-10T07:06:37.250Z,14.77
2018-05-10T07:09:39.940Z,15.67
2018-05-10T07:12:42.386Z,13.93
2018-05-10T07:15:45.018Z,12.70
2018-05-10T07:18:47.602Z,13.37
2018-05-10T07:21:50.118Z,15.93
2018-05-10T07:24:52.717Z,15.33
2018-05-10T07:27:55.269Z,13.73
2018-05-10T07:30:57.801Z,12.53
2018-05-10T07:34:00.371Z,11.87
2018-05-10T07:37:02.930Z,12.17
2018-05-10T07:40:05.490Z,15.20
2018-05-10T07:43:08.086Z,16.63
2018-05-10T07:46:10.628Z,14.83
2018-05-10T07:49:13.263Z,14.43
2018-05-10T07:52:15.897Z,14.87
2018-05-10T07:55:28.153Z,19.63
2018-05-10T07:58:32.647Z,12.10
2018-05-10T08:01:35.203Z,14.33
2018-05-10T08:04:37.759Z,14.77
2018-05-10T08:07:40.308Z,23.97
2018-05-10T08:10:42.904Z,32.50
2018-05-10T08:13:45.527Z,13.23
2018-05-10T08:16:48.269Z,17.33
2018-05-10T08:19:50.923Z,24.70
2018-05-10T08:22:54.527Z,34.63
2018-05-10T08:25:57.137Z,31.33
2018-05-10T08:28:59.703Z,17.83
2018-05-10T08:32:02.287Z,12.07
2018-05-10T08:35:05.699Z,19.73
2018-05-10T08:38:08.236Z,17.77
2018-05-10T08:41:10.910Z,12.53
2018-05-10T08:44:13.422Z,17.83
2018-05-10T08:47:17.861Z,16.33
2018-05-10T08:50:20.416Z,37.63
2018-05-10T08:53:22.952Z,22.33
2018-05-10T08:56:25.464Z,17.47
2018-05-10T08:59:28.002Z,15.60
2018-05-10T09:02:30.576Z,15.87
2018-05-10T09:05:33.152Z,16.07
2018-05-10T09:08:35.670Z,13.87
2018-05-10T09:11:38.215Z,14.30
2018-05-10T09:14:40.741Z,17.43
2018-05-10T09:17:43.287Z,19.93
2018-05-10T09:20:45.826Z,11.23
2018-05-10T09:23:48.353Z,12.37
2018-05-10T09:26:50.909Z,22.63
2018-05-10T09:29:53.521Z,18.63
2018-05-10T09:32:56.312Z,8.40
2018-05-10T09:35:58.919Z,13.03
2018-05-10T09:39:01.670Z,13.13
2018-05-10T09:42:05.388Z,15.83
2018-05-10T09:45:08.014Z,13.17
2018-05-10T09:48:10.590Z,13.73
2018-05-10T09:51:13.198Z,17.80
2018-05-10T09:54:15.782Z,12.37
2018-05-10T09:57:18.310Z,9.93
2018-05-10T10:00:26.417Z,16.97
2018-05-10T10:03:28.985Z,10.93
2018-05-10T10:06:31.672Z,17.90
2018-05-10T10:09:34.321Z,16.20
2018-05-10T10:12:36.917Z,8.77
2018-05-10T10:15:39.481Z,14.57
2018-05-10T10:18:42.007Z,9.97
2018-05-10T10:21:44.535Z,16.07
2018-05-10T10:24:47.104Z,20.63
2018-05-10T10:27:49.661Z,14.03
2018-05-10T10:30:52.221Z,11.73
2018-05-10T10:33:54.731Z,13.30
2018-05-10T10:36:57.272Z,10.93
2018-05-10T10:39:59.915Z,16.37
2018-05-10T10:43:02.497Z,10.70
2018-05-10T10:46:05.007Z,9.43
2018-05-10T10:49:07.551Z,9.73
2018-05-10T10:52:10.064Z,14.40
2018-05-10T10:55:12.630Z,11.70
2018-05-10T10:58:15.181Z,12.73
2018-05-10T11:01:17.721Z,9.87
2018-05-10T11:04:21.165Z,11.10
2018-05-10T11:07:23.687Z,13.97
2018-05-10T11:10:26.236Z,10.63
2018-05-10T11:13:28.761Z,13.43
2018-05-10T11:16:31.321Z,10.03
2018-05-10T11:19:33.858Z,11.30
2018-05-10T11:22:36.389Z,10.60
2018-05-10T11:25:38.983Z,14.17
2018-05-10T11:28:41.557Z,14.07
2018-05-10T11:31:44.121Z,13.10
2018-05-10T11:34:46.922Z,12.20
2018-05-10T11:37:49.482Z,12.07
2018-05-10T11:40:52.029Z,12.40
2018-05-10T11:43:54.560Z,12.97
2018-05-10T11:46:57.110Z,15.93
2018-05-10T11:49:59.678Z,15.37
2018-05-10T11:53:02.201Z,13.90
2018-05-10T11:56:04.852Z,11.47
2018-05-10T11:59:07.405Z,14.60
2018-05-10T12:02:09.937Z,17.73
2018-05-10T12:05:12.588Z,14.30
2018-05-10T12:08:15.087Z,10.83
2018-05-10T12:11:17.840Z,14.10
2018-05-10T12:14:20.383Z,11.03
2018-05-10T12:17:22.913Z,14.40
2018-05-10T12:20:25.554Z,13.13
2018-05-10T12:23:28.070Z,17.13
2018-05-10T12:26:30.660Z,21.07
2018-05-10T12:29:33.229Z,22.43
2018-05-10T12:32:35.901Z,10.93
2018-05-10T12:35:38.488Z,11.87
2018-05-10T12:38:41.061Z,12.53
2018-05-10T12:41:43.618Z,11.77
2018-05-10T12:44:46.203Z,14.20
2018-05-10T12:47:48.923Z,12.43
2018-05-10T12:50:51.473Z,14.03
2018-05-10T12:53:54.010Z,13.77
2018-05-10T12:56:56.541Z,15.30
2018-05-10T12:59:59.138Z,13.43
2018-05-10T13:03:01.627Z,13.30
2018-05-10T13:06:04.177Z,15.40
2018-05-10T13:09:06.754Z,9.77
2018-05-10T13:12:10.480Z,13.07
2018-05-10T13:15:12.988Z,11.87
2018-05-10T13:18:15.888Z,13.40
2018-05-10T13:21:18.491Z,12.43
2018-05-10T13:24:21.013Z,11.63
2018-05-10T13:27:23.631Z,10.33
2018-05-10T13:30:26.109Z,12.23
2018-05-10T13:33:28.648Z,12.97
2018-05-10T13:36:31.192Z,12.77
2018-05-10T13:39:33.723Z,14.47
2018-05-10T13:42:36.483Z,12.60
2018-05-10T13:45:39.045Z,11.27
2018-05-10T13:48:41.578Z,14.07
2018-05-10T13:51:44.121Z,14.37
2018-05-10T13:54:46.656Z,13.93
2018-05-10T13:57:49.259Z,16.93
2018-05-10T14:00:51.758Z,15.43
2018-05-10T14:03:54.370Z,21.43
2018-05-10T14:06:57.543Z,12.43
2018-05-10T14:10:00.520Z,13.10
2018-05-10T14:13:03.470Z,16.20
2018-05-10T14:16:06.087Z,13.63
2018-05-10T14:19:09.887Z,12.67
2018-05-10T14:22:12.617Z,8.67
2018-05-10T14:25:15.415Z,14.97
2018-05-10T14:28:17.926Z,18.83
2018-05-10T14:31:20.670Z,13.27
2018-05-10T14:34:23.233Z,17.57
2018-05-10T14:37:25.748Z,11.57
2018-05-10T14:40:28.305Z,13.77
2018-05-10T14:43:31.495Z,19.67
2018-05-10T14:46:34.089Z,10.60
2018-05-10T14:49:36.720Z,10.97
2018-05-10T14:52:39.271Z,13.27
2018-05-10T14:55:42.060Z,23.53
2018-05-10T14:58:44.746Z,16.93
2018-05-10T15:01:47.503Z,24.67
2018-05-10T15:04:50.121Z,17.73
2018-05-10T15:07:52.828Z,15.73
2018-05-10T15:10:59.936Z,18.97
2018-05-10T15:14:03.557Z,19.50
2018-05-10T15:17:23.953Z,18.53
2018-05-10T15:20:27.314Z,14.93
2018-05-10T15:24:11.675Z,18.50
2018-05-10T15:27:15.988Z,24.33
2018-05-10T15:33:47.769Z,16.40
2018-05-10T15:36:50.362Z,15.87
2018-05-10T15:39:53.039Z,16.83
2018-05-10T15:42:57.875Z,15.27
2018-05-10T15:46:00.489Z,21.13
2018-05-10T15:49:03.185Z,22.13
2018-05-10T15:52:06.866Z,15.27
2018-05-10T15:55:09.478Z,13.20
2018-05-10T15:58:14.868Z,15.10
2018-05-10T16:01:22.520Z,14.87
2018-05-10T16:04:25.678Z,14.63
2018-05-10T16:07:29.958Z,10.60
2018-05-10T16:10:33.872Z,12.27
2018-05-10T16:13:36.595Z,16.37
2018-05-10T16:16:42.764Z,18.10
2018-05-10T16:19:45.557Z,14.67
2018-05-10T16:22:48.921Z,14.33
2018-05-10T16:25:52.816Z,17.97
2018-05-10T16:28:55.404Z,13.80
2018-05-10T16:31:57.965Z,15.53
2018-05-10T16:35:00.608Z,14.10
2018-05-10T16:38:03.990Z,13.33
2018-05-10T16:41:06.744Z,20.30
2018-05-10T16:47:41.832Z,16.27
2018-05-10T16:53:58.248Z,15.73
2018-05-10T16:57:00.994Z,15.83
2018-05-10T17:00:03.652Z,18.03
2018-05-10T17:03:06.227Z,11.33
2018-05-10T17:06:08.794Z,15.67
2018-05-10T17:09:11.342Z,29.53
2018-05-10T17:12:13.905Z,11.60
2018-05-10T17:15:17.067Z,14.93
2018-05-10T17:18:19.589Z,15.37
2018-05-10T17:21:24.933Z,13.90
2018-05-10T17:24:27.513Z,16.50
2018-05-10T17:27:30.131Z,13.90
2018-05-10T17:30:32.778Z,14.87
2018-05-10T17:33:35.331Z,18.93
2018-05-10T17:36:39.002Z,12.80
2018-05-10T17:39:41.561Z,16.00
2018-05-10T17:42:44.139Z,16.90
2018-05-10T17:45:46.718Z,15.17
2018-05-10T17:48:49.349Z,13.80
2018-05-10T17:51:53.227Z,17.03
2018-05-10T17:54:55.867Z,10.40
2018-05-10T17:58:00.622Z,12.20
2018-05-10T18:01:07.329Z,15.73
2018-05-10T18:04:11.720Z,20.40
2018-05-10T18:07:14.505Z,13.20
2018-05-10T18:10:17.361Z,11.90
2018-05-10T18:13:22.280Z,15.50
2018-05-10T18:16:26.899Z,15.50
2018-05-10T18:19:32.643Z,22.43
2018-05-10T18:22:35.414Z,20.23
2018-05-10T18:25:38.170Z,11.53
2018-05-10T18:28:43.955Z,19.20
2018-05-10T18:31:46.847Z,24.33
2018-05-10T18:34:49.610Z,15.93
2018-05-10T18:37:52.397Z,21.60
2018-05-10T18:40:55.417Z,18.07
2018-05-10T18:43:59.118Z,14.87
2018-05-10T18:47:07.068Z,18.10
2018-05-10T18:50:10.100Z,20.60
2018-05-10T18:53:15.590Z,18.00
2018-05-10T18:56:19.995Z,15.80
2018-05-10T18:59:22.871Z,18.77
2018-05-10T19:02:27.299Z,15.53
2018-05-10T19:05:30.251Z,18.67
2018-05-10T19:08:33.046Z,20.03
2018-05-10T19:11:37.004Z,21.07
2018-05-10T19:14:39.849Z,21.97
2018-05-10T19:17:43.568Z,24.83
2018-05-10T19:20:56.636Z,25.53
2018-05-10T19:23:59.505Z,27.83
2018-05-10T19:27:02.361Z,29.90
2018-05-10T19:30:05.348Z,37.90
2018-05-10T19:33:10.213Z,37.83
2018-05-10T19:36:12.864Z,43.90
2018-05-10T19:39:15.545Z,39.63
2018-05-10T19:42:18.274Z,39.07
2018-05-10T19:45:21.141Z,38.17
2018-05-10T19:48:23.888Z,37.97
2018-05-10T19:51:27.488Z,38.67
2018-05-10T19:54:33.860Z,41.60
2018-05-10T19:57:37.562Z,41.00
2018-05-10T20:00:40.513Z,42.33
2018-05-10T20:03:44.106Z,43.50
2018-05-10T20:06:50.855Z,46.03
2018-05-10T20:09:54.981Z,44.73
2018-05-10T20:12:57.809Z,46.63
2018-05-10T20:16:00.632Z,44.73
2018-05-10T20:19:03.655Z,45.57
2018-05-10T20:22:07.331Z,43.47
2018-05-10T20:25:10.438Z,45.53
2018-05-10T20:28:13.235Z,42.57
2018-05-10T20:31:16.044Z,44.70
2018-05-10T20:34:25.257Z,40.37
2018-05-10T20:37:28.180Z,41.07
2018-05-10T20:40:31.542Z,42.03
2018-05-10T20:43:34.187Z,39.70
2018-05-10T20:46:38.990Z,35.63
2018-05-10T20:49:43.505Z,35.50
2018-05-10T20:52:46.383Z,37.47
2018-05-10T20:55:50.343Z,40.50
2018-05-10T20:58:53.125Z,89.87
2018-05-10T21:01:55.819Z,50.70
2018-05-10T21:04:58.448Z,36.10
2018-05-10T21:08:02.365Z,39.23
2018-05-10T21:11:04.981Z,34.03
2018-05-10T21:14:07.574Z,33.83
2018-05-10T21:17:10.152Z,29.80
2018-05-10T21:20:12.762Z,27.47
2018-05-10T21:23:15.452Z,28.50
2018-05-10T21:26:18.118Z,28.23
2018-05-10T21:29:20.734Z,28.43
2018-05-10T21:32:23.304Z,26.83
2018-05-10T21:35:25.928Z,26.50
2018-05-10T21:38:32.134Z,23.07
2018-05-10T21:41:34.715Z,25.67
2018-05-10T21:44:37.334Z,25.50
2018-05-10T21:47:39.920Z,23.90
2018-05-10T21:50:46.044Z,24.80
2018-05-10T21:53:52.015Z,25.27
2018-05-10T21:56:56.128Z,23.33
2018-05-10T21:59:58.767Z,27.23
2018-05-10T22:03:06.077Z,22.90
2018-05-10T22:06:08.681Z,22.83
2018-05-10T22:09:11.493Z,25.10
2018-05-10T22:12:14.114Z,22.67
2018-05-10T22:15:16.658Z,24.33
2018-05-10T22:18:19.221Z,22.50
2018-05-10T22:21:21.922Z,23.27
2018-05-10T22:24:24.536Z,27.23
2018-05-10T22:27:27.029Z,27.17
2018-05-10T22:30:29.611Z,26.47
2018-05-10T22:33:32.157Z,29.20
2018-05-10T22:36:34.761Z,29.40
2018-05-10T22:39:37.320Z,31.93
2018-05-10T22:42:39.840Z,31.93
2018-05-10T22:45:42.391Z,33.57
2018-05-10T22:48:44.901Z,31.40
2018-05-10T22:51:47.493Z,34.67
2018-05-10T22:54:50.091Z,31.37
2018-05-10T22:57:52.660Z,31.97
2018-05-10T23:00:55.270Z,31.70
2018-05-10T23:03:57.821Z,36.57
2018-05-10T23:07:00.403Z,32.03
2018-05-10T23:10:02.960Z,32.43
2018-05-10T23:13:05.599Z,31.30
2018-05-10T23:16:08.171Z,32.07
2018-05-10T23:19:10.684Z,32.57
2018-05-10T23:22:13.187Z,34.33
2018-05-10T23:25:15.720Z,32.80
2018-05-10T23:28:18.231Z,34.63
2018-05-10T23:31:20.771Z,36.20
2018-05-10T23:34:23.318Z,39.43
2018-05-10T23:37:25.942Z,37.93
2018-05-10T23:40:28.486Z,36.63
2018-05-10T23:43:31.021Z,35.20
2018-05-10T23:46:33.674Z,34.77
2018-05-10T23:49:36.166Z,32.43
2018-05-10T23:52:38.732Z,36.07
2018-05-10T23:55:41.375Z,36.23
2018-05-10T23:58:43.913Z,35.77
